createdAt,value
2023-04-25T00:00:56.317Z,2.50
2023-04-25T00:03:28.535Z,2.00
2023-04-25T00:06:03.677Z,2.42
2023-04-25T00:08:38.361Z,3.05
2023-04-25T00:11:10.516Z,2.25
2023-04-25T00:13:42.951Z,3.13
2023-04-25T00:16:16.737Z,1.80
2023-04-25T00:18:52.476Z,1.20
2023-04-25T00:21:25.607Z,1.67
2023-04-25T00:24:00.794Z,1.35
2023-04-25T00:26:32.831Z,2.10
2023-04-25T00:29:04.956Z,1.35
2023-04-25T00:31:37.094Z,1.38
2023-04-25T00:34:09.652Z,1.38
2023-04-25T00:36:41.885Z,1.40
2023-04-25T00:39:16.576Z,1.60
2023-04-25T00:41:49.492Z,1.35
2023-04-25T00:44:21.946Z,1.55
2023-04-25T00:46:54.894Z,2.10
2023-04-25T00:49:26.980Z,2.20
2023-04-25T00:51:59.973Z,2.28
2023-04-25T00:54:34.673Z,2.08
2023-04-25T00:57:06.756Z,2.42
2023-04-25T00:59:39.933Z,1.70
2023-04-25T01:02:12.221Z,2.47
2023-04-25T01:04:44.410Z,2.15
2023-04-25T01:07:17.355Z,2.28
2023-04-25T01:09:53.285Z,2.15
2023-04-25T01:12:25.645Z,1.73
2023-04-25T01:14:57.853Z,2.60
2023-04-25T01:17:30.646Z,2.40
2023-04-25T01:20:04.764Z,1.77
2023-04-25T01:22:39.542Z,2.47
2023-04-25T01:25:11.953Z,1.25
2023-04-25T01:27:44.461Z,2.03
2023-04-25T01:30:16.798Z,2.85
2023-04-25T01:32:49.355Z,2.03
2023-04-25T01:35:21.539Z,2.85
2023-04-25T01:37:56.217Z,2.03
2023-04-25T01:40:29.132Z,2.92
2023-04-25T01:43:01.250Z,3.00
2023-04-25T01:45:34.217Z,2.38
2023-04-25T01:48:06.502Z,2.40
2023-04-25T01:50:39.272Z,2.50
2023-04-25T01:53:14.962Z,2.53
2023-04-25T01:55:47.018Z,2.25
2023-04-25T01:58:19.063Z,2.75
2023-04-25T02:00:51.117Z,2.70
2023-04-25T02:03:23.408Z,2.20
2023-04-25T02:05:55.673Z,1.77
2023-04-25T02:08:31.409Z,2.50
2023-04-25T02:11:04.392Z,2.33
2023-04-25T02:13:36.505Z,3.40
2023-04-25T02:16:08.731Z,3.08
2023-04-25T02:18:40.951Z,2.42
2023-04-25T02:21:12.999Z,2.45
2023-04-25T02:23:50.292Z,2.72
2023-04-25T02:26:22.633Z,2.33
2023-04-25T02:28:54.655Z,2.35
2023-04-25T02:31:27.223Z,2.33
2023-04-25T02:33:59.333Z,2.00
2023-04-25T02:36:33.328Z,2.20
2023-04-25T02:39:08.100Z,2.22
2023-04-25T02:41:40.151Z,1.90
2023-04-25T02:44:12.253Z,1.98
2023-04-25T02:46:44.384Z,2.10
2023-04-25T02:49:16.569Z,2.15
2023-04-25T02:51:48.748Z,3.10
2023-04-25T02:54:23.422Z,2.45
2023-04-25T02:56:55.754Z,2.42
2023-04-25T02:59:27.927Z,2.63
2023-04-25T03:01:59.960Z,2.35
2023-04-25T03:04:32.778Z,3.13
2023-04-25T03:07:05.614Z,3.15
2023-04-25T03:09:40.327Z,3.10
2023-04-25T03:12:12.356Z,2.50
2023-04-25T03:14:44.481Z,2.60
2023-04-25T03:17:17.178Z,2.50
2023-04-25T03:19:49.392Z,2.60
2023-04-25T03:22:21.737Z,2.85
2023-04-25T03:24:56.407Z,3.13
2023-04-25T03:27:28.454Z,2.58
2023-04-25T03:30:00.565Z,2.20
2023-04-25T03:32:32.680Z,3.15
2023-04-25T03:35:06.503Z,3.20
2023-04-25T03:37:38.636Z,2.33
2023-04-25T03:40:13.446Z,2.42
2023-04-25T03:42:45.634Z,3.08
2023-04-25T03:45:17.709Z,2.47
2023-04-25T03:47:49.839Z,3.45
2023-04-25T03:50:21.969Z,3.15
2023-04-25T03:52:54.043Z,3.40
2023-04-25T03:55:28.755Z,3.50
2023-04-25T03:58:00.887Z,3.08
2023-04-25T04:00:33.177Z,3.60
2023-04-25T04:03:05.827Z,2.90
2023-04-25T04:05:38.433Z,3.70
2023-04-25T04:08:10.656Z,3.67
2023-04-25T04:10:45.313Z,4.00
2023-04-25T04:13:17.381Z,4.13
2023-04-25T04:15:49.518Z,3.55
2023-04-25T04:18:21.588Z,4.03
2023-04-25T04:20:53.670Z,4.90
2023-04-25T04:23:25.786Z,4.40
2023-04-25T04:26:01.011Z,4.40
2023-04-25T04:28:33.065Z,3.45
2023-04-25T04:31:05.215Z,3.15
2023-04-25T04:33:37.940Z,3.90
2023-04-25T04:36:10.957Z,3.85
2023-04-25T04:38:43.493Z,3.75
2023-04-25T04:41:18.184Z,3.92
2023-04-25T04:43:50.436Z,4.50
2023-04-25T04:46:23.119Z,4.82
2023-04-25T04:48:55.226Z,5.13
2023-04-25T04:51:27.259Z,4.63
2023-04-25T04:54:03.396Z,4.40
2023-04-25T04:56:38.081Z,3.97
2023-04-25T04:59:10.282Z,4.10
2023-04-25T05:01:42.302Z,4.82
2023-04-25T05:04:14.524Z,4.88
2023-04-25T05:06:48.832Z,4.32
2023-04-25T05:09:21.243Z,4.90
2023-04-25T05:11:55.927Z,4.97
2023-04-25T05:14:28.074Z,5.00
2023-04-25T05:17:00.665Z,4.88
2023-04-25T05:19:33.902Z,4.57
2023-04-25T05:22:06.067Z,4.30
2023-04-25T05:24:38.106Z,4.53
2023-04-25T05:27:12.705Z,4.78
2023-04-25T05:29:45.013Z,3.80
2023-04-25T05:32:17.159Z,4.57
2023-04-25T05:34:49.298Z,4.07
2023-04-25T05:37:21.455Z,4.47
2023-04-25T05:39:54.365Z,4.80
2023-04-25T05:42:29.142Z,5.22
2023-04-25T05:45:01.834Z,4.38
2023-04-25T05:47:34.024Z,4.88
2023-04-25T05:50:13.799Z,4.53
2023-04-25T05:52:45.848Z,4.78
2023-04-25T05:55:18.073Z,5.68
2023-04-25T05:57:52.758Z,4.45
2023-04-25T06:00:25.102Z,5.28
2023-04-25T06:02:57.474Z,5.25
2023-04-25T06:05:30.366Z,5.55
2023-04-25T06:08:02.668Z,5.10
2023-04-25T06:10:39.030Z,6.45
2023-04-25T06:13:13.702Z,5.15
2023-04-25T06:15:45.804Z,5.25
2023-04-25T06:18:24.558Z,4.38
2023-04-25T06:20:56.703Z,4.78
2023-04-25T06:23:29.050Z,4.47
2023-04-25T06:26:09.963Z,5.22
2023-04-25T06:28:46.299Z,4.47
2023-04-25T06:31:18.407Z,4.88
2023-04-25T06:33:51.035Z,4.53
2023-04-25T06:36:26.174Z,4.85
2023-04-25T06:38:58.331Z,4.45
2023-04-25T06:41:30.392Z,4.55
2023-04-25T06:44:05.129Z,4.60
2023-04-25T06:46:37.544Z,4.10
2023-04-25T06:49:09.666Z,4.88
2023-04-25T06:51:42.466Z,4.53
2023-04-25T06:54:14.559Z,5.10
2023-04-25T06:56:46.733Z,5.00
2023-04-25T06:59:21.458Z,4.70
2023-04-25T07:01:53.673Z,5.28
2023-04-25T07:04:26.213Z,4.45
2023-04-25T07:07:04.995Z,4.93
2023-04-25T07:09:37.164Z,4.32
2023-04-25T07:12:09.241Z,4.57
2023-04-25T07:14:46.106Z,5.25
2023-04-25T07:17:18.154Z,5.50
2023-04-25T07:19:50.338Z,4.82
2023-04-25T07:22:22.428Z,6.07
2023-04-25T07:24:54.516Z,5.57
2023-04-25T07:27:29.838Z,5.75
2023-04-25T07:30:05.733Z,4.82
2023-04-25T07:32:37.980Z,5.05
2023-04-25T07:35:16.649Z,4.93
2023-04-25T07:37:56.692Z,5.13
2023-04-25T07:40:28.926Z,5.80
2023-04-25T07:43:01.327Z,6.38
2023-04-25T07:45:36.206Z,5.28
2023-04-25T07:48:08.301Z,5.78
2023-04-25T07:50:40.405Z,7.22
2023-04-25T07:53:12.565Z,6.60
2023-04-25T07:55:44.735Z,6.97
2023-04-25T07:58:22.290Z,6.57
2023-04-25T08:00:57.083Z,6.25
2023-04-25T08:03:29.463Z,6.72
2023-04-25T08:06:03.490Z,6.80
2023-04-25T08:08:37.741Z,6.82
2023-04-25T08:11:09.871Z,6.97
2023-04-25T08:13:42.043Z,6.38
2023-04-25T08:16:17.029Z,6.40
2023-04-25T08:18:52.541Z,7.22
2023-04-25T08:21:25.043Z,6.82
2023-04-25T08:23:58.571Z,6.70
2023-04-25T08:26:35.095Z,6.70
2023-04-25T08:29:07.436Z,6.95
2023-04-25T08:31:42.141Z,6.80
2023-04-25T08:34:14.258Z,6.05
2023-04-25T08:36:46.335Z,6.25
2023-04-25T08:39:22.241Z,5.88
2023-04-25T08:41:54.520Z,6.43
2023-04-25T08:44:27.596Z,5.50
2023-04-25T08:47:04.193Z,5.32
2023-04-25T08:49:37.200Z,5.70
2023-04-25T08:52:12.059Z,5.38
2023-04-25T08:54:47.829Z,5.60
2023-04-25T08:57:21.168Z,6.63
2023-04-25T08:59:53.958Z,5.43
2023-04-25T09:02:32.335Z,6.40
2023-04-25T09:05:05.490Z,6.13
2023-04-25T09:07:37.849Z,6.05
2023-04-25T09:10:12.405Z,5.93
2023-04-25T09:12:44.759Z,4.18
2023-04-25T09:18:01.370Z,3.92
2023-04-25T09:23:21.655Z,4.28
2023-04-25T09:26:03.836Z,2.53
2023-04-25T09:28:42.013Z,2.35
2023-04-25T09:31:24.886Z,2.08
2023-04-25T09:34:03.483Z,2.45
2023-04-25T09:36:36.092Z,2.75
2023-04-25T09:39:16.632Z,1.70
2023-04-25T09:41:48.870Z,3.22
2023-04-25T09:44:25.627Z,2.17
2023-04-25T09:46:58.317Z,3.13
2023-04-25T09:49:33.200Z,3.33
2023-04-25T09:52:05.842Z,3.05
2023-04-25T09:54:37.935Z,3.15
2023-04-25T09:57:13.795Z,2.47
2023-04-25T09:59:51.753Z,2.92
2023-04-25T10:05:00.154Z,3.22
2023-04-25T10:07:34.962Z,4.68
2023-04-25T10:10:08.687Z,3.95
2023-04-25T10:12:41.642Z,4.82
2023-04-25T10:15:18.242Z,5.25
2023-04-25T10:17:51.791Z,5.05
2023-04-25T10:20:26.865Z,4.15
2023-04-25T10:23:12.361Z,5.05
2023-04-25T10:25:45.069Z,4.57
2023-04-25T10:28:17.156Z,3.55
2023-04-25T10:30:59.588Z,5.28
2023-04-25T10:33:35.800Z,4.80
2023-04-25T10:36:15.152Z,4.72
2023-04-25T10:38:48.763Z,4.13
2023-04-25T10:41:31.769Z,4.18
2023-04-25T10:44:08.056Z,4.97
2023-04-25T10:46:40.188Z,6.13
2023-04-25T10:49:35.479Z,4.70
2023-04-25T10:52:18.789Z,4.93
2023-04-25T10:54:58.823Z,5.07
2023-04-25T10:57:38.323Z,5.47
2023-04-25T11:00:25.695Z,4.82
2023-04-25T11:03:03.925Z,4.50
2023-04-25T11:05:57.493Z,4.20
2023-04-25T11:08:49.418Z,4.20
2023-04-25T11:11:25.067Z,3.30
2023-04-25T11:13:58.436Z,3.88
2023-04-25T11:16:32.280Z,4.00
2023-04-25T11:19:07.444Z,3.50
2023-04-25T11:21:45.411Z,2.90
2023-04-25T11:24:20.377Z,3.33
2023-04-25T11:26:53.228Z,3.58
2023-04-25T11:29:35.804Z,3.63
2023-04-25T11:32:10.810Z,2.95
2023-04-25T11:34:53.509Z,2.78
2023-04-25T11:37:26.239Z,3.13
2023-04-25T11:40:01.125Z,3.63
2023-04-25T11:42:33.424Z,3.10
2023-04-25T11:45:07.262Z,3.50
2023-04-25T11:47:39.519Z,2.90
2023-04-25T11:50:15.178Z,2.65
2023-04-25T11:52:49.101Z,3.13
2023-04-25T11:55:23.801Z,3.05
2023-04-25T11:57:55.964Z,3.72
2023-04-25T12:00:28.149Z,2.80
2023-04-25T12:03:06.108Z,2.72
2023-04-25T12:05:39.437Z,3.63
2023-04-25T12:08:13.174Z,3.28
2023-04-25T12:10:48.302Z,3.42
2023-04-25T12:13:33.110Z,2.63
2023-04-25T12:16:08.270Z,2.80
2023-04-25T12:18:42.628Z,2.88
2023-04-25T12:21:15.080Z,3.08
2023-04-25T12:23:50.171Z,2.40
2023-04-25T12:26:30.480Z,3.15
2023-04-25T12:29:02.696Z,3.45
2023-04-25T12:31:34.862Z,3.53
2023-04-25T12:34:08.363Z,2.92
2023-04-25T12:36:41.105Z,3.33
2023-04-25T12:39:17.233Z,3.28
2023-04-25T12:41:55.028Z,2.97
2023-04-25T12:44:28.015Z,3.53
2023-04-25T12:47:01.265Z,3.15
2023-04-25T12:49:34.359Z,4.55
2023-04-25T12:52:06.628Z,2.97
2023-04-25T12:54:45.690Z,1.52
2023-04-25T12:57:23.699Z,3.72
2023-04-25T12:59:55.776Z,3.65
2023-04-25T13:02:28.038Z,3.72
2023-04-25T13:05:00.243Z,3.42
2023-04-25T13:07:33.490Z,3.08
2023-04-25T13:10:08.578Z,3.05
2023-04-25T13:12:43.298Z,3.35
2023-04-25T13:15:16.776Z,2.40
2023-04-25T13:22:56.459Z,2.90
2023-04-25T13:25:28.556Z,2.58
2023-04-25T13:28:03.557Z,1.95
2023-04-25T13:30:38.683Z,1.98
2023-04-25T13:33:11.548Z,2.00
2023-04-25T13:35:43.817Z,1.55
2023-04-25T13:38:18.999Z,1.83
2023-04-25T13:40:53.351Z,2.00
2023-04-25T13:43:28.236Z,2.13
2023-04-25T13:46:00.420Z,1.92
2023-04-25T13:48:32.656Z,1.65
2023-04-25T13:51:05.036Z,2.10
2023-04-25T13:53:37.112Z,1.52
2023-04-25T13:56:09.272Z,2.65
2023-04-25T13:58:44.019Z,2.35
2023-04-25T14:01:16.491Z,2.45
2023-04-25T14:03:48.870Z,2.72
2023-04-25T14:06:24.069Z,2.70
2023-04-25T14:08:57.719Z,2.38
2023-04-25T14:11:29.970Z,2.05
2023-04-25T14:14:04.664Z,2.63
2023-04-25T14:16:36.922Z,2.60
2023-04-25T14:19:09.015Z,1.55
2023-04-25T14:21:42.418Z,2.05
2023-04-25T14:24:16.189Z,2.08
2023-04-25T14:26:48.304Z,2.05
2023-04-25T14:29:23.342Z,2.45
2023-04-25T14:31:55.562Z,2.72
2023-04-25T14:34:27.795Z,1.92
2023-04-25T14:37:00.157Z,1.73
2023-04-25T14:39:32.207Z,1.90
2023-04-25T14:42:04.824Z,2.15
2023-04-25T14:44:39.620Z,2.38
2023-04-25T14:47:11.755Z,2.53
2023-04-25T14:49:44.875Z,1.95
2023-04-25T14:52:17.010Z,3.63
2023-04-25T14:54:49.241Z,2.75
2023-04-25T14:57:21.446Z,2.40
2023-04-25T14:59:56.170Z,1.63
2023-04-25T15:02:28.797Z,1.60
2023-04-25T15:05:01.366Z,2.33
2023-04-25T15:07:36.408Z,1.95
2023-04-25T15:10:16.935Z,2.33
2023-04-25T15:12:49.218Z,3.03
2023-04-25T15:15:26.788Z,2.53
2023-04-25T15:18:01.386Z,1.92
2023-04-25T15:20:33.744Z,1.95
2023-04-25T15:23:06.964Z,2.25
2023-04-25T15:25:39.118Z,8.02
2023-04-25T15:28:11.240Z,7.22
2023-04-25T15:30:46.480Z,2.03
2023-04-25T15:33:18.623Z,2.15
2023-04-25T15:35:50.775Z,2.20
2023-04-25T15:38:22.951Z,2.03
2023-04-25T15:40:55.087Z,1.88
2023-04-25T15:43:27.275Z,1.85
2023-04-25T15:46:02.019Z,2.65
2023-04-25T15:48:34.227Z,2.25
2023-04-25T15:51:06.809Z,2.42
2023-04-25T15:53:38.889Z,2.20
2023-04-25T15:56:11.419Z,2.13
2023-04-25T15:58:43.679Z,2.45
2023-04-25T16:01:18.590Z,2.70
2023-04-25T16:03:52.413Z,2.33
2023-04-25T16:06:30.815Z,2.97
2023-04-25T16:09:02.927Z,2.63
2023-04-25T16:11:36.532Z,2.45
2023-04-25T16:14:09.012Z,2.33
2023-04-25T16:16:45.135Z,2.33
2023-04-25T16:19:19.014Z,2.75
2023-04-25T16:21:54.967Z,2.30
2023-04-25T16:24:27.241Z,3.17
2023-04-25T16:27:00.150Z,2.28
2023-04-25T16:29:32.517Z,2.55
2023-04-25T16:32:08.171Z,3.08
2023-04-25T16:34:40.675Z,2.50
2023-04-25T16:37:13.286Z,2.65
2023-04-25T16:39:46.119Z,2.63
2023-04-25T16:42:18.346Z,2.85
2023-04-25T16:44:50.482Z,2.92
2023-04-25T16:47:25.803Z,3.45
2023-04-25T16:50:00.002Z,3.00
2023-04-25T16:52:32.270Z,2.80
2023-04-25T16:55:05.034Z,2.88
2023-04-25T16:57:37.810Z,3.03
2023-04-25T17:00:13.161Z,2.55
2023-04-25T17:02:48.208Z,2.50
2023-04-25T17:05:20.699Z,2.20
2023-04-25T17:07:52.943Z,2.03
2023-04-25T17:10:25.102Z,2.78
2023-04-25T17:12:57.393Z,2.55
2023-04-25T17:15:29.675Z,2.03
2023-04-25T17:18:04.978Z,1.95
2023-04-25T17:20:37.168Z,2.33
2023-04-25T17:23:09.454Z,2.28
2023-04-25T17:25:41.698Z,2.10
2023-04-25T17:28:14.061Z,2.42
2023-04-25T17:30:46.434Z,3.53
2023-04-25T17:33:21.256Z,2.40
2023-04-25T17:35:54.425Z,2.22
2023-04-25T17:38:26.639Z,1.98
2023-04-25T17:40:59.027Z,1.58
2023-04-25T17:43:31.586Z,3.17
2023-04-25T17:46:03.738Z,2.78
2023-04-25T17:48:38.435Z,2.60
2023-04-25T17:51:10.738Z,3.00
2023-04-25T17:53:42.930Z,3.80
2023-04-25T17:56:25.972Z,4.15
2023-04-25T17:58:59.659Z,3.08
2023-04-25T18:01:31.858Z,3.30
2023-04-25T18:04:06.830Z,3.83
2023-04-25T18:06:39.050Z,4.72
2023-04-25T18:09:23.899Z,3.30
2023-04-25T18:11:56.670Z,3.60
2023-04-25T18:14:29.087Z,4.05
2023-04-25T18:17:01.278Z,3.42
2023-04-25T18:19:36.032Z,4.15
2023-04-25T18:22:08.168Z,3.85
2023-04-25T18:24:40.269Z,3.72
2023-04-25T18:27:12.470Z,4.22
2023-04-25T18:29:45.681Z,4.40
2023-04-25T18:32:17.867Z,3.10
2023-04-25T18:34:52.611Z,3.00
2023-04-25T18:37:24.840Z,4.25
2023-04-25T18:39:56.924Z,4.75
2023-04-25T18:42:29.056Z,4.28
2023-04-25T18:45:01.272Z,4.53
2023-04-25T18:47:33.508Z,4.32
2023-04-25T18:50:09.406Z,4.40
2023-04-25T18:52:42.021Z,4.22
2023-04-25T18:55:14.213Z,4.55
2023-04-25T18:57:46.482Z,4.10
2023-04-25T19:00:18.983Z,4.07
2023-04-25T19:02:51.626Z,4.85
2023-04-25T19:05:26.556Z,3.50
2023-04-25T19:07:59.515Z,4.60
2023-04-25T19:10:31.937Z,5.03
2023-04-25T19:13:04.391Z,5.00
2023-04-25T19:15:36.623Z,4.30
2023-04-25T19:18:09.201Z,4.35
2023-04-25T19:20:44.162Z,4.70
2023-04-25T19:23:16.359Z,4.50
2023-04-25T19:25:48.436Z,4.50
2023-04-25T19:28:20.684Z,4.00
2023-04-25T19:30:52.944Z,5.10
2023-04-25T19:33:25.324Z,4.32
2023-04-25T19:36:00.096Z,4.90
2023-04-25T19:38:32.321Z,5.40
2023-04-25T19:41:04.474Z,4.32
2023-04-25T19:43:36.649Z,4.20
2023-04-25T19:46:09.848Z,5.03
2023-04-25T19:48:41.977Z,6.30
2023-04-25T19:51:16.714Z,4.95
2023-04-25T19:53:48.969Z,5.38
2023-04-25T19:56:21.309Z,5.95
2023-04-25T19:58:53.838Z,5.63
2023-04-25T20:01:26.512Z,4.85
2023-04-25T20:03:58.700Z,5.20
2023-04-25T20:06:33.638Z,5.95
2023-04-25T20:09:06.548Z,5.68
2023-04-25T20:11:38.900Z,5.18
2023-04-25T20:14:11.726Z,6.35
2023-04-25T20:16:43.992Z,5.43
2023-04-25T20:19:16.158Z,5.53
2023-04-25T20:21:51.037Z,5.85
2023-04-25T20:24:23.191Z,6.55
2023-04-25T20:26:56.607Z,6.47
2023-04-25T20:29:28.687Z,5.60
2023-04-25T20:32:03.133Z,5.97
2023-04-25T20:34:35.612Z,6.25
2023-04-25T20:37:10.327Z,5.80
2023-04-25T20:39:42.397Z,6.75
2023-04-25T20:42:14.908Z,5.95
2023-04-25T20:44:47.047Z,7.13
2023-04-25T20:47:19.368Z,5.50
2023-04-25T20:49:52.431Z,5.22
2023-04-25T20:52:27.169Z,5.05
2023-04-25T20:54:59.468Z,4.68
2023-04-25T20:57:32.225Z,5.20
2023-04-25T21:00:15.573Z,6.15
2023-04-25T21:02:47.965Z,4.72
2023-04-25T21:05:23.262Z,4.15
2023-04-25T21:07:58.430Z,4.18
2023-04-25T21:10:30.547Z,4.88
2023-04-25T21:13:02.965Z,4.43
2023-04-25T21:15:35.075Z,5.70
2023-04-25T21:18:07.349Z,4.03
2023-04-25T21:20:39.600Z,4.05
2023-04-25T21:23:14.310Z,4.60
2023-04-25T21:25:48.716Z,4.13
2023-04-25T21:28:21.207Z,4.28
2023-04-25T21:30:53.402Z,4.85
2023-04-25T21:33:25.645Z,5.03
2023-04-25T21:35:57.770Z,5.28
2023-04-25T21:38:32.611Z,5.43
2023-04-25T21:41:05.512Z,5.88
2023-04-25T21:43:37.785Z,6.93
2023-04-25T21:48:44.884Z,6.03
2023-04-25T21:51:17.943Z,6.30
2023-04-25T21:53:53.050Z,6.38
2023-04-25T21:56:25.120Z,6.50
2023-04-25T21:58:57.168Z,6.22
2023-04-25T22:01:29.388Z,5.95
2023-04-25T22:04:01.721Z,6.25
2023-04-25T22:06:33.935Z,5.03
2023-04-25T22:09:09.037Z,6.03
2023-04-25T22:11:41.302Z,5.75
2023-04-25T22:14:13.693Z,5.72
2023-04-25T22:16:46.204Z,5.88
2023-04-25T22:19:18.388Z,4.70
2023-04-25T22:21:50.766Z,4.72
2023-04-25T22:24:29.776Z,4.63
2023-04-25T22:27:02.888Z,4.65
2023-04-25T22:29:35.318Z,4.90
2023-04-25T22:32:07.650Z,4.22
2023-04-25T22:34:39.752Z,4.40
2023-04-25T22:37:11.864Z,4.15
2023-04-25T22:39:46.800Z,3.97
2023-04-25T22:42:18.900Z,5.65
2023-04-25T22:44:52.259Z,3.28
2023-04-25T22:47:24.816Z,4.53
2023-04-25T22:49:58.318Z,4.53
2023-04-25T22:52:30.442Z,4.85
2023-04-25T22:55:06.469Z,5.03
2023-04-25T22:57:38.992Z,6.10
2023-04-25T23:00:20.378Z,4.60
2023-04-25T23:02:54.049Z,6.38
2023-04-25T23:05:26.252Z,5.13
2023-04-25T23:07:59.238Z,5.43
2023-04-25T23:10:33.886Z,5.13
2023-04-25T23:13:05.945Z,5.82
2023-04-25T23:15:38.097Z,4.20
2023-04-25T23:18:10.301Z,5.28
2023-04-25T23:20:43.078Z,5.65
2023-04-25T23:23:15.178Z,5.78
2023-04-25T23:25:49.897Z,6.43
2023-04-25T23:28:21.988Z,6.30
2023-04-25T23:30:54.128Z,4.90
2023-04-25T23:33:26.206Z,5.63
2023-04-25T23:35:58.310Z,4.38
2023-04-25T23:38:30.439Z,5.22
2023-04-25T23:41:05.193Z,5.82
2023-04-25T23:43:37.445Z,4.97
2023-04-25T23:46:09.811Z,5.47
2023-04-25T23:48:43.988Z,5.18
2023-04-25T23:51:16.084Z,6.10
2023-04-25T23:53:48.133Z,5.00
2023-04-25T23:56:23.130Z,5.60
2023-04-25T23:58:57.779Z,5.72
